x

North Michigan- Halfway Between North Manitou And Washington Islands. (45002) Wave Buoy

12:50am - Wed 22nd Oct 2014 All times are CDT. -5 hours from GMT.

  • Sig Wave height 2.0ft
  • Swell Direction
  • Peak Period 4s
  • Average Period 4s
  • Wind
    11mph, 13mph gusts
  • Sea Temp 51°f
  • Air Temp 46°f
  • Sea Pressure 1026.7mb
  • North Michigan- Halfway Between North Manitou And Washington Islands.
  • North Michigan- Halfway Between North Manitou And Washington Islands.

More Historic Weather Station data

Upgrade to MSW Pro to gain access to the past 30 days of data for over 8000 Wavebouys and Weather Stations around the globe.

Join Pro

Comparision Forecast

View Surf forecast
   
Wed 10/22 12:50am 2ft 4s 4s 11 13 mph 1026.7mb 51f 46f
Tue 10/21 11:50pm 2ft 4s 3s 11 13 mph 1026.6mb 51f 46f
10:50pm 2ft 4s 3s 11 16 mph 1026.5mb 51f 46f
9:50pm 2ft 4s 3s 13 16 mph 1026.5mb 51f 45f
8:50pm 1.6ft 4s 3s 13 16 mph 1025.9mb 51f 46f
7:50pm 1.3ft 3s 3s 16 18 mph 1025.3mb 51f 47f
6:50pm 1ft 3s 3s 13 16 mph 1025mb 51f 48f
5:50pm 1ft 4s 3s 11 13 mph 1024.6mb 51f 48f
4:50pm 1.3ft 3s 3s 9 11 mph 1024.1mb 51f 47f
3:50pm 1.6ft 4s 3s 11 16 mph 1023.7mb 51f 47f
2:50pm 2ft 4s 3s 16 18 mph 1023.5mb 51f 46f
1:50pm 2.5ft 5s 4s 13 18 mph 1023.6mb 51f 46f
12:50pm 2.5ft 5s 4s 13 18 mph 1023.8mb 51f 44f
11:50am 3ft 5s 4s 16 18 mph 1023.8mb 51f 44f
10:50am 3.5ft 5s 4s 18 22 mph 1023.5mb 51f 44f
9:50am 4ft 5s 4s 18 25 mph 1022.7mb 51f 44f
8:50am 3.5ft 5s 4s 20 25 mph 1022.1mb 51f 44f
7:50am 4.5ft 5s 4s 22 27 mph 1021.1mb 51f 45f
6:50am 4ft 5s 4s 22 27 mph 1020.2mb 51f 46f
5:50am 4.5ft 5s 4s 22 27 mph 1019.2mb 51f 46f
4:50am 4ft 5s 4s 25 27 mph 1018.1mb 51f 46f
3:50am 3.5ft 5s 4s 25 29 mph 1017.3mb 51f 46f
2:50am 3.5ft 5s 4s 22 27 mph 1016.6mb 51f 47f
1:50am 3.5ft 4s 4s 25 27 mph 1016mb 51f 47f
12:50am 4ft 5s 4s 22 29 mph 1015.7mb 51f 47f
Mon 10/20 11:50pm 4.5ft 5s 4s 22 27 mph 1015.5mb 51f 47f
10:50pm 4.5ft 5s 4s 25 31 mph 1015.2mb 51f 46f
9:50pm 5ft 5s 4s 27 31 mph 1014.7mb 52f 47f
8:50pm 4.5ft 5s 4s 25 29 mph 1014.5mb 52f 47f
7:50pm 4.5ft 5s 4s 29 34 mph 1013.8mb 52f 47f
6:50pm 4ft 5s 4s 27 31 mph 1013.4mb 52f 47f
5:50pm 4.5ft 5s 4s 25 27 mph 1012.8mb 51f 47f
4:50pm 4ft 4s 4s 25 29 mph 1012mb 51f 48f
3:50pm 3.5ft 4s 4s 22 27 mph 1011.5mb 51f 48f
2:50pm 3.5ft 4s 4s 20 25 mph 1010.8mb 51f 49f
1:50pm 3ft 4s 4s 22 27 mph 1010.4mb 51f 49f
12:50pm 3ft 4s 4s 18 22 mph 1010.3mb 51f 49f
11:50am 3.5ft 4s 4s 20 22 mph 1010.2mb 52f 49f
10:50am 3ft 4s 4s 20 22 mph 1009.9mb 52f 48f
9:50am 3.5ft 7s 4s 18 22 mph 1009.8mb 52f 49f
8:50am 3.5ft 6s 4s 20 22 mph 1009.2mb 52f 49f
7:50am 3ft 7s 4s 16 20 mph 1008.6mb 52f 49f
6:50am 3.5ft 6s 5s 16 18 mph 1007.7mb 52f 50f
5:50am 4ft 7s 5s 11
mph
1007.3mb 52f 52f
4:50am 4.5ft 7s 5s 11 13 mph 1006.6mb 52f 52f
3:50am 5ft 7s 5s 11 13 mph 1006.7mb 52f 52f
2:50am 5.5ft 7s 5s 16 18 mph 1006.9mb 52f 52f
1:50am 5.5ft 7s 5s 18 22 mph 1006.8mb 52f 52f
12:50am 6ft 7s 5s 18 22 mph 1006.9mb 52f 52f
Sun 10/19 10:50pm 7ft 7s 6s 22 27 mph 1007.7mb 52f 52f
9:50pm 7ft 8s 5s 22 27 mph 1008.5mb 52f 52f
8:50pm 8ft 7s 6s 25 29 mph 1009.2mb 51f 51f
7:50pm 7.5ft 7s 5s 27 34 mph 1009.8mb 51f 51f
6:50pm 6.5ft 6s 5s 27 34 mph 1010.5mb 51f 51f
5:50pm 6.5ft 6s 5s 29 34 mph 1010.4mb 51f 50f
4:50pm  -   -   -  29 34 mph 1010.4mb 51f 49f
3:50pm 4.5ft 5s 4s 25 29 mph 1012.3mb 51f 50f
2:50pm 5ft 5s 4s 25 29 mph 1013.3mb 51f 49f
1:50pm 4.5ft 5s 4s 25 27 mph 1014.5mb 51f 49f
12:50pm 3.5ft 5s 4s 22 27 mph 1016mb 51f 49f
11:50am 3.5ft 5s 4s 20 25 mph 1016.9mb 52f 49f
10:50am 3ft 4s 4s 20 25 mph 1017.9mb 52f 48f
9:50am 2ft 3s 3s 20 25 mph 1018.6mb 52f 48f
8:50am 1.3ft 3s 3s 18 20 mph 1019.2mb 52f 46f
7:50am 0.7ft  -  2s 13 18 mph 1019.8mb 52f 45f
6:50am 0.3ft  -  3s 9 13 mph 1020.6mb 51f 43f
5:50am 0.7ft  -  3s 9 11 mph 1021mb 51f 42f
4:50am 0.7ft  -  3s 7 9 mph 1020.8mb 51f 41f
3:50am 1ft 3s 3s 4 7 mph 1020.8mb 51f 41f
2:50am 1ft 3s 3s 2 4 mph 1021.1mb 51f 40f
1:50am 1.3ft 4s 3s 4 7 mph 1021.5mb 51f 40f
12:50am 1.3ft 4s 4s 4 9 mph 1021.8mb 51f 40f
Sat 10/18 11:50pm 2ft 5s 4s 7 11 mph 1021.9mb 52f 40f
10:50pm 2.5ft 5s 4s 11 16 mph 1021.8mb 52f 40f
9:50pm 2.5ft 5s 4s 13 18 mph 1022.1mb 52f 40f
8:50pm 3.5ft 5s 4s 18 20 mph 1022.2mb 52f 39f
7:50pm 3.5ft 5s 4s 16 20 mph 1022.1mb 52f 40f
6:50pm 4ft 5s 4s 20 25 mph 1021.9mb 52f 40f
5:50pm 4.5ft 5s 4s 25 29 mph 1021.1mb 52f 41f
4:50pm 4.5ft 5s 4s 22 29 mph 1020.6mb 52f 42f
3:50pm 4ft 5s 4s 27 31 mph 1020mb 52f 42f
2:50pm 4.5ft 6s 4s 22 29 mph 1019.6mb 53f 42f
1:50pm 4.5ft 6s 4s 22 27 mph 1019.4mb 53f 42f
12:50pm 5ft 6s 5s 22 29 mph 1019.1mb 53f 42f
11:50am 6ft 6s 5s 22 27 mph 1018.8mb 53f 41f
10:50am 6.5ft 6s 5s 25 31 mph 1018mb 53f 41f
9:50am 6ft 6s 5s 27 31 mph 1017.2mb 53f 41f
8:50am 6.5ft 7s 5s 29 36 mph 1016mb 53f 41f
7:50am 7ft 6s 5s 29 36 mph 1015mb 53f 42f